sensor_id;sensor_type;location;lat;lon;timestamp;P1;durP1;ratioP1;P2;durP2;ratioP2
2476;SDS011;1249;51.270;6.756;2022-10-04T00:00:58;121.03;;;114.23;;
2476;SDS011;1249;51.270;6.756;2022-10-04T00:03:31;118.23;;;112.00;;
2476;SDS011;1249;51.270;6.756;2022-10-04T00:06:02;120.57;;;114.07;;
2476;SDS011;1249;51.270;6.756;2022-10-04T00:08:33;127.40;;;120.17;;
2476;SDS011;1249;51.270;6.756;2022-10-04T00:11:06;125.60;;;118.80;;
2476;SDS011;1249;51.270;6.756;2022-10-04T00:13:44;96.63;;;90.53;;
2476;SDS011;1249;51.270;6.756;2022-10-04T00:16:19;124.10;;;117.30;;
2476;SDS011;1249;51.270;6.756;2022-10-04T00:18:52;106.00;;;99.13;;
2476;SDS011;1249;51.270;6.756;2022-10-04T00:33:55;96.10;;;90.13;;
2476;SDS011;1249;51.270;6.756;2022-10-04T00:36:45;144.27;;;136.27;;
2476;SDS011;1249;51.270;6.756;2022-10-04T00:39:17;130.37;;;123.40;;
2476;SDS011;1249;51.270;6.756;2022-10-04T00:42:12;112.37;;;106.37;;
2476;SDS011;1249;51.270;6.756;2022-10-04T00:45:01;118.80;;;112.37;;
2476;SDS011;1249;51.270;6.756;2022-10-04T00:47:39;145.33;;;138.13;;
2476;SDS011;1249;51.270;6.756;2022-10-04T00:50:31;118.27;;;110.67;;
2476;SDS011;1249;51.270;6.756;2022-10-04T00:53:10;131.37;;;124.20;;
2476;SDS011;1249;51.270;6.756;2022-10-04T00:55:41;125.00;;;117.93;;
2476;SDS011;1249;51.270;6.756;2022-10-04T00:58:13;119.97;;;113.90;;
2476;SDS011;1249;51.270;6.756;2022-10-04T01:00:46;98.50;;;92.87;;
2476;SDS011;1249;51.270;6.756;2022-10-04T01:03:15;129.47;;;122.33;;
2476;SDS011;1249;51.270;6.756;2022-10-04T01:05:46;122.27;;;115.73;;
2476;SDS011;1249;51.270;6.756;2022-10-04T01:08:22;115.97;;;109.83;;
2476;SDS011;1249;51.270;6.756;2022-10-04T01:10:53;104.40;;;97.80;;
2476;SDS011;1249;51.270;6.756;2022-10-04T01:13:24;111.37;;;105.17;;
2476;SDS011;1249;51.270;6.756;2022-10-04T01:15:55;122.17;;;114.97;;
2476;SDS011;1249;51.270;6.756;2022-10-04T01:20:56;132.93;;;125.80;;
2476;SDS011;1249;51.270;6.756;2022-10-04T01:23:39;104.23;;;98.73;;
2476;SDS011;1249;51.270;6.756;2022-10-04T01:29:05;101.40;;;96.20;;
2476;SDS011;1249;51.270;6.756;2022-10-04T01:31:35;129.67;;;122.53;;
2476;SDS011;1249;51.270;6.756;2022-10-04T01:34:04;99.93;;;94.00;;
2476;SDS011;1249;51.270;6.756;2022-10-04T01:36:32;122.40;;;115.70;;
2476;SDS011;1249;51.270;6.756;2022-10-04T01:39:01;106.00;;;99.93;;
2476;SDS011;1249;51.270;6.756;2022-10-04T01:41:31;129.80;;;122.97;;
2476;SDS011;1249;51.270;6.756;2022-10-04T01:44:05;101.47;;;95.83;;
2476;SDS011;1249;51.270;6.756;2022-10-04T01:46:35;103.77;;;98.07;;
2476;SDS011;1249;51.270;6.756;2022-10-04T01:49:07;110.37;;;103.87;;
2476;SDS011;1249;51.270;6.756;2022-10-04T01:51:37;137.23;;;130.13;;
2476;SDS011;1249;51.270;6.756;2022-10-04T01:54:11;125.30;;;117.30;;
2476;SDS011;1249;51.270;6.756;2022-10-04T01:56:43;131.07;;;124.07;;
2476;SDS011;1249;51.270;6.756;2022-10-04T01:59:14;146.80;;;138.00;;
2476;SDS011;1249;51.270;6.756;2022-10-04T02:01:46;101.30;;;96.07;;
2476;SDS011;1249;51.270;6.756;2022-10-04T02:04:19;112.90;;;106.60;;
2476;SDS011;1249;51.270;6.756;2022-10-04T02:06:49;115.07;;;108.70;;
2476;SDS011;1249;51.270;6.756;2022-10-04T02:09:21;94.97;;;90.33;;
2476;SDS011;1249;51.270;6.756;2022-10-04T02:11:50;119.07;;;113.73;;
2476;SDS011;1249;51.270;6.756;2022-10-04T02:14:21;95.87;;;90.57;;
2476;SDS011;1249;51.270;6.756;2022-10-04T02:16:50;102.83;;;96.53;;
2476;SDS011;1249;51.270;6.756;2022-10-04T02:19:18;111.40;;;105.33;;
2476;SDS011;1249;51.270;6.756;2022-10-04T02:21:46;92.03;;;85.83;;
2476;SDS011;1249;51.270;6.756;2022-10-04T02:24:14;117.93;;;111.47;;
2476;SDS011;1249;51.270;6.756;2022-10-04T02:26:48;131.43;;;124.33;;
2476;SDS011;1249;51.270;6.756;2022-10-04T02:29:15;128.60;;;122.03;;
2476;SDS011;1249;51.270;6.756;2022-10-04T02:31:43;115.40;;;108.77;;
2476;SDS011;1249;51.270;6.756;2022-10-04T02:34:28;84.83;;;80.23;;
2476;SDS011;1249;51.270;6.756;2022-10-04T02:36:55;112.23;;;106.00;;
2476;SDS011;1249;51.270;6.756;2022-10-04T02:39:23;138.10;;;131.53;;
2476;SDS011;1249;51.270;6.756;2022-10-04T02:41:55;129.03;;;122.03;;
2476;SDS011;1249;51.270;6.756;2022-10-04T02:44:28;109.27;;;103.43;;
2476;SDS011;1249;51.270;6.756;2022-10-04T02:47:03;114.30;;;107.80;;
2476;SDS011;1249;51.270;6.756;2022-10-04T02:49:34;94.07;;;89.07;;
2476;SDS011;1249;51.270;6.756;2022-10-04T02:52:06;114.43;;;108.57;;
2476;SDS011;1249;51.270;6.756;2022-10-04T02:54:38;104.77;;;98.83;;
2476;SDS011;1249;51.270;6.756;2022-10-04T02:57:13;99.37;;;93.60;;
2476;SDS011;1249;51.270;6.756;2022-10-04T02:59:42;135.17;;;128.50;;
2476;SDS011;1249;51.270;6.756;2022-10-04T03:02:19;104.30;;;98.70;;
2476;SDS011;1249;51.270;6.756;2022-10-04T03:04:48;105.60;;;99.77;;
2476;SDS011;1249;51.270;6.756;2022-10-04T03:07:17;104.37;;;98.13;;
2476;SDS011;1249;51.270;6.756;2022-10-04T03:09:45;132.27;;;125.07;;
2476;SDS011;1249;51.270;6.756;2022-10-04T03:12:13;101.73;;;96.33;;
2476;SDS011;1249;51.270;6.756;2022-10-04T03:14:41;115.37;;;109.50;;
2476;SDS011;1249;51.270;6.756;2022-10-04T03:17:09;105.60;;;100.00;;
2476;SDS011;1249;51.270;6.756;2022-10-04T03:19:36;145.07;;;137.37;;
2476;SDS011;1249;51.270;6.756;2022-10-04T03:22:05;104.23;;;98.13;;
2476;SDS011;1249;51.270;6.756;2022-10-04T03:24:36;122.17;;;115.70;;
2476;SDS011;1249;51.270;6.756;2022-10-04T03:27:11;116.90;;;110.53;;
2476;SDS011;1249;51.270;6.756;2022-10-04T03:29:42;111.80;;;105.80;;
2476;SDS011;1249;51.270;6.756;2022-10-04T03:32:09;87.93;;;83.03;;
2476;SDS011;1249;51.270;6.756;2022-10-04T03:34:40;125.30;;;118.57;;
2476;SDS011;1249;51.270;6.756;2022-10-04T03:37:15;111.63;;;105.07;;
2476;SDS011;1249;51.270;6.756;2022-10-04T03:39:46;110.90;;;105.20;;
2476;SDS011;1249;51.270;6.756;2022-10-04T03:42:16;137.23;;;130.17;;
2476;SDS011;1249;51.270;6.756;2022-10-04T03:44:46;99.20;;;94.20;;
2476;SDS011;1249;51.270;6.756;2022-10-04T03:47:16;111.10;;;103.87;;
2476;SDS011;1249;51.270;6.756;2022-10-04T03:49:46;143.03;;;134.93;;
2476;SDS011;1249;51.270;6.756;2022-10-04T03:52:16;108.73;;;103.30;;
2476;SDS011;1249;51.270;6.756;2022-10-04T03:54:47;131.27;;;124.60;;
2476;SDS011;1249;51.270;6.756;2022-10-04T03:57:17;107.07;;;101.10;;
2476;SDS011;1249;51.270;6.756;2022-10-04T03:59:44;130.33;;;123.53;;
2476;SDS011;1249;51.270;6.756;2022-10-04T04:02:12;127.27;;;121.17;;
2476;SDS011;1249;51.270;6.756;2022-10-04T04:04:45;107.93;;;102.63;;
2476;SDS011;1249;51.270;6.756;2022-10-04T04:07:18;116.63;;;110.30;;
2476;SDS011;1249;51.270;6.756;2022-10-04T04:09:49;89.03;;;84.30;;
2476;SDS011;1249;51.270;6.756;2022-10-04T04:12:22;92.00;;;86.83;;
2476;SDS011;1249;51.270;6.756;2022-10-04T04:14:58;150.47;;;141.50;;
2476;SDS011;1249;51.270;6.756;2022-10-04T04:17:29;119.23;;;112.63;;
2476;SDS011;1249;51.270;6.756;2022-10-04T04:20:01;118.33;;;112.43;;
2476;SDS011;1249;51.270;6.756;2022-10-04T04:22:31;118.40;;;112.13;;
2476;SDS011;1249;51.270;6.756;2022-10-04T04:24:58;121.20;;;114.70;;
2476;SDS011;1249;51.270;6.756;2022-10-04T04:27:28;113.73;;;107.30;;
2476;SDS011;1249;51.270;6.756;2022-10-04T04:29:57;132.07;;;125.07;;
2476;SDS011;1249;51.270;6.756;2022-10-04T04:32:29;111.00;;;105.37;;
2476;SDS011;1249;51.270;6.756;2022-10-04T04:35:02;109.87;;;104.23;;
2476;SDS011;1249;51.270;6.756;2022-10-04T04:37:32;114.57;;;108.47;;
2476;SDS011;1249;51.270;6.756;2022-10-04T04:40:09;108.87;;;102.23;;
2476;SDS011;1249;51.270;6.756;2022-10-04T04:42:46;130.27;;;123.93;;
2476;SDS011;1249;51.270;6.756;2022-10-04T04:45:14;128.70;;;121.53;;
2476;SDS011;1249;51.270;6.756;2022-10-04T04:47:45;117.17;;;110.43;;
2476;SDS011;1249;51.270;6.756;2022-10-04T04:50:14;106.20;;;100.20;;
2476;SDS011;1249;51.270;6.756;2022-10-04T04:52:43;125.90;;;118.60;;
2476;SDS011;1249;51.270;6.756;2022-10-04T04:55:15;117.90;;;111.47;;
2476;SDS011;1249;51.270;6.756;2022-10-04T04:57:46;135.93;;;128.43;;
2476;SDS011;1249;51.270;6.756;2022-10-04T05:00:17;120.23;;;114.00;;
2476;SDS011;1249;51.270;6.756;2022-10-04T05:02:51;112.63;;;106.70;;
2476;SDS011;1249;51.270;6.756;2022-10-04T05:05:21;131.13;;;124.17;;
2476;SDS011;1249;51.270;6.756;2022-10-04T05:07:49;136.07;;;128.67;;
2476;SDS011;1249;51.270;6.756;2022-10-04T05:10:28;111.13;;;105.23;;
2476;SDS011;1249;51.270;6.756;2022-10-04T05:12:58;150.80;;;143.43;;
2476;SDS011;1249;51.270;6.756;2022-10-04T05:15:27;146.33;;;138.37;;
2476;SDS011;1249;51.270;6.756;2022-10-04T05:17:58;111.00;;;105.00;;
2476;SDS011;1249;51.270;6.756;2022-10-04T05:20:26;134.03;;;127.43;;
2476;SDS011;1249;51.270;6.756;2022-10-04T05:22:54;113.80;;;107.53;;
2476;SDS011;1249;51.270;6.756;2022-10-04T05:25:24;101.40;;;96.17;;
2476;SDS011;1249;51.270;6.756;2022-10-04T05:27:55;101.70;;;95.80;;
2476;SDS011;1249;51.270;6.756;2022-10-04T05:33:46;103.33;;;97.33;;
2476;SDS011;1249;51.270;6.756;2022-10-04T05:36:25;157.43;;;148.80;;
2476;SDS011;1249;51.270;6.756;2022-10-04T05:39:08;103.33;;;98.53;;
2476;SDS011;1249;51.270;6.756;2022-10-04T05:41:49;113.47;;;107.27;;
2476;SDS011;1249;51.270;6.756;2022-10-04T05:44:25;112.73;;;106.33;;
2476;SDS011;1249;51.270;6.756;2022-10-04T05:46:54;114.17;;;106.97;;
2476;SDS011;1249;51.270;6.756;2022-10-04T05:49:23;93.10;;;87.90;;
2476;SDS011;1249;51.270;6.756;2022-10-04T05:51:54;112.53;;;106.80;;
2476;SDS011;1249;51.270;6.756;2022-10-04T05:54:26;134.63;;;127.53;;
2476;SDS011;1249;51.270;6.756;2022-10-04T06:02:49;131.07;;;123.13;;
2476;SDS011;1249;51.270;6.756;2022-10-04T06:05:40;105.63;;;99.97;;
2476;SDS011;1249;51.270;6.756;2022-10-04T06:08:25;125.83;;;118.13;;
2476;SDS011;1249;51.270;6.756;2022-10-04T06:11:12;109.07;;;103.33;;
2476;SDS011;1249;51.270;6.756;2022-10-04T06:16:54;111.93;;;106.53;;
2476;SDS011;1249;51.270;6.756;2022-10-04T06:19:56;109.13;;;103.57;;
2476;SDS011;1249;51.270;6.756;2022-10-04T06:22:43;108.97;;;103.80;;
2476;SDS011;1249;51.270;6.756;2022-10-04T06:25:11;96.53;;;91.73;;
2476;SDS011;1249;51.270;6.756;2022-10-04T06:27:44;88.90;;;83.97;;
2476;SDS011;1249;51.270;6.756;2022-10-04T06:30:18;11.47;;;10.73;;
2476;SDS011;1249;51.270;6.756;2022-10-04T06:33:01;7.07;;;6.67;;
2476;SDS011;1249;51.270;6.756;2022-10-04T06:36:01;11.07;;;10.50;;
2476;SDS011;1249;51.270;6.756;2022-10-04T06:39:06;17.03;;;15.60;;
2476;SDS011;1249;51.270;6.756;2022-10-04T06:41:44;10.43;;;9.83;;
2476;SDS011;1249;51.270;6.756;2022-10-04T06:44:31;9.57;;;8.83;;
2476;SDS011;1249;51.270;6.756;2022-10-04T06:47:18;6.50;;;5.87;;
2476;SDS011;1249;51.270;6.756;2022-10-04T06:49:53;8.83;;;8.30;;
2476;SDS011;1249;51.270;6.756;2022-10-04T06:52:26;9.60;;;8.73;;
2476;SDS011;1249;51.270;6.756;2022-10-04T06:55:22;11.67;;;10.53;;
2476;SDS011;1249;51.270;6.756;2022-10-04T07:00:58;9.60;;;9.13;;
2476;SDS011;1249;51.270;6.756;2022-10-04T07:03:30;11.60;;;10.70;;
2476;SDS011;1249;51.270;6.756;2022-10-04T07:06:03;23.73;;;22.53;;
2476;SDS011;1249;51.270;6.756;2022-10-04T07:08:35;21.10;;;19.77;;
2476;SDS011;1249;51.270;6.756;2022-10-04T07:11:11;16.03;;;15.30;;
2476;SDS011;1249;51.270;6.756;2022-10-04T07:13:44;12.63;;;11.60;;
2476;SDS011;1249;51.270;6.756;2022-10-04T07:16:37;20.03;;;18.83;;
2476;SDS011;1249;51.270;6.756;2022-10-04T07:21:58;11.30;;;10.60;;
2476;SDS011;1249;51.270;6.756;2022-10-04T07:24:41;15.50;;;14.57;;
2476;SDS011;1249;51.270;6.756;2022-10-04T07:27:20;24.77;;;23.27;;
2476;SDS011;1249;51.270;6.756;2022-10-04T07:29:53;18.33;;;17.17;;
2476;SDS011;1249;51.270;6.756;2022-10-04T07:32:20;27.70;;;26.03;;
2476;SDS011;1249;51.270;6.756;2022-10-04T07:34:51;29.97;;;27.87;;
2476;SDS011;1249;51.270;6.756;2022-10-04T07:37:27;18.73;;;17.33;;
2476;SDS011;1249;51.270;6.756;2022-10-04T07:40:01;40.80;;;38.40;;
2476;SDS011;1249;51.270;6.756;2022-10-04T07:42:34;33.80;;;31.80;;
2476;SDS011;1249;51.270;6.756;2022-10-04T07:45:11;30.60;;;28.77;;
2476;SDS011;1249;51.270;6.756;2022-10-04T07:47:42;32.53;;;30.57;;
2476;SDS011;1249;51.270;6.756;2022-10-04T07:50:17;33.47;;;31.37;;
2476;SDS011;1249;51.270;6.756;2022-10-04T07:52:49;26.20;;;24.13;;
2476;SDS011;1249;51.270;6.756;2022-10-04T07:55:23;35.37;;;33.33;;
2476;SDS011;1249;51.270;6.756;2022-10-04T07:57:59;36.43;;;34.43;;
2476;SDS011;1249;51.270;6.756;2022-10-04T08:00:36;25.60;;;24.30;;
2476;SDS011;1249;51.270;6.756;2022-10-04T08:03:13;34.50;;;31.77;;
2476;SDS011;1249;51.270;6.756;2022-10-04T08:06:16;9.70;;;8.73;;
2476;SDS011;1249;51.270;6.756;2022-10-04T08:08:55;31.80;;;30.33;;
2476;SDS011;1249;51.270;6.756;2022-10-04T08:11:40;22.10;;;20.77;;
2476;SDS011;1249;51.270;6.756;2022-10-04T08:14:26;21.17;;;19.83;;
2476;SDS011;1249;51.270;6.756;2022-10-04T08:17:10;29.67;;;27.87;;
2476;SDS011;1249;51.270;6.756;2022-10-04T08:19:50;14.97;;;13.67;;
2476;SDS011;1249;51.270;6.756;2022-10-04T08:22:27;21.13;;;19.50;;
2476;SDS011;1249;51.270;6.756;2022-10-04T08:25:01;37.23;;;34.73;;
2476;SDS011;1249;51.270;6.756;2022-10-04T08:27:46;57.03;;;54.27;;
2476;SDS011;1249;51.270;6.756;2022-10-04T08:30:45;25.80;;;24.07;;
2476;SDS011;1249;51.270;6.756;2022-10-04T08:33:25;16.93;;;16.13;;
2476;SDS011;1249;51.270;6.756;2022-10-04T08:36:08;37.60;;;35.27;;
2476;SDS011;1249;51.270;6.756;2022-10-04T08:38:43;50.87;;;47.77;;
2476;SDS011;1249;51.270;6.756;2022-10-04T08:44:33;52.77;;;50.23;;
2476;SDS011;1249;51.270;6.756;2022-10-04T08:47:42;61.90;;;58.37;;
2476;SDS011;1249;51.270;6.756;2022-10-04T08:53:34;59.67;;;56.30;;
2476;SDS011;1249;51.270;6.756;2022-10-04T08:56:47;76.87;;;72.97;;
2476;SDS011;1249;51.270;6.756;2022-10-04T09:02:27;87.20;;;83.00;;
2476;SDS011;1249;51.270;6.756;2022-10-04T09:05:18;73.30;;;69.50;;
2476;SDS011;1249;51.270;6.756;2022-10-04T09:14:49;71.27;;;67.40;;
2476;SDS011;1249;51.270;6.756;2022-10-04T09:17:35;85.83;;;80.77;;
2476;SDS011;1249;51.270;6.756;2022-10-04T09:20:18;137.57;;;130.03;;
2476;SDS011;1249;51.270;6.756;2022-10-04T09:22:48;135.60;;;127.63;;
2476;SDS011;1249;51.270;6.756;2022-10-04T09:25:25;154.77;;;145.80;;
2476;SDS011;1249;51.270;6.756;2022-10-04T09:28:05;143.63;;;134.93;;
2476;SDS011;1249;51.270;6.756;2022-10-04T09:30:42;167.53;;;156.80;;
2476;SDS011;1249;51.270;6.756;2022-10-04T09:33:26;145.87;;;137.70;;
2476;SDS011;1249;51.270;6.756;2022-10-04T09:39:28;123.77;;;116.53;;
2476;SDS011;1249;51.270;6.756;2022-10-04T09:42:17;134.77;;;126.60;;
2476;SDS011;1249;51.270;6.756;2022-10-04T09:44:54;108.43;;;102.00;;
2476;SDS011;1249;51.270;6.756;2022-10-04T09:47:43;123.57;;;116.30;;
2476;SDS011;1249;51.270;6.756;2022-10-04T09:50:19;125.17;;;118.67;;
2476;SDS011;1249;51.270;6.756;2022-10-04T09:53:18;127.33;;;120.20;;
2476;SDS011;1249;51.270;6.756;2022-10-04T09:56:07;101.93;;;94.23;;
2476;SDS011;1249;51.270;6.756;2022-10-04T10:02:02;104.63;;;98.93;;
2476;SDS011;1249;51.270;6.756;2022-10-04T10:04:54;101.73;;;95.87;;
2476;SDS011;1249;51.270;6.756;2022-10-04T10:07:37;103.73;;;98.83;;
2476;SDS011;1249;51.270;6.756;2022-10-04T10:10:15;92.60;;;86.70;;
2476;SDS011;1249;51.270;6.756;2022-10-04T10:13:20;98.93;;;93.10;;
2476;SDS011;1249;51.270;6.756;2022-10-04T10:16:14;109.90;;;104.23;;
2476;SDS011;1249;51.270;6.756;2022-10-04T10:19:02;133.97;;;126.93;;
2476;SDS011;1249;51.270;6.756;2022-10-04T10:21:45;95.83;;;89.77;;
2476;SDS011;1249;51.270;6.756;2022-10-04T10:24:39;98.27;;;92.67;;
2476;SDS011;1249;51.270;6.756;2022-10-04T10:27:37;107.80;;;101.73;;
2476;SDS011;1249;51.270;6.756;2022-10-04T10:30:20;114.17;;;107.70;;
2476;SDS011;1249;51.270;6.756;2022-10-04T10:32:55;96.67;;;91.33;;
2476;SDS011;1249;51.270;6.756;2022-10-04T10:38:41;115.77;;;109.43;;
2476;SDS011;1249;51.270;6.756;2022-10-04T10:41:37;111.97;;;105.87;;
2476;SDS011;1249;51.270;6.756;2022-10-04T10:44:38;97.13;;;91.70;;
2476;SDS011;1249;51.270;6.756;2022-10-04T10:47:24;104.20;;;98.77;;
2476;SDS011;1249;51.270;6.756;2022-10-04T10:50:14;85.30;;;80.53;;
2476;SDS011;1249;51.270;6.756;2022-10-04T10:59:30;104.70;;;99.13;;
2476;SDS011;1249;51.270;6.756;2022-10-04T11:02:33;109.67;;;103.73;;
2476;SDS011;1249;51.270;6.756;2022-10-04T11:08:18;117.07;;;110.67;;
2476;SDS011;1249;51.270;6.756;2022-10-04T11:11:17;113.77;;;107.50;;
2476;SDS011;1249;51.270;6.756;2022-10-04T11:14:13;116.93;;;110.67;;
2476;SDS011;1249;51.270;6.756;2022-10-04T11:17:07;123.03;;;115.93;;
2476;SDS011;1249;51.270;6.756;2022-10-04T11:20:04;113.40;;;106.43;;
2476;SDS011;1249;51.270;6.756;2022-10-04T11:26:08;119.90;;;112.67;;
2476;SDS011;1249;51.270;6.756;2022-10-04T11:29:06;106.83;;;100.67;;
2476;SDS011;1249;51.270;6.756;2022-10-04T11:31:55;116.60;;;110.17;;
2476;SDS011;1249;51.270;6.756;2022-10-04T11:38:04;113.30;;;106.57;;
2476;SDS011;1249;51.270;6.756;2022-10-04T11:40:43;142.10;;;134.43;;
2476;SDS011;1249;51.270;6.756;2022-10-04T11:43:37;132.13;;;124.43;;
2476;SDS011;1249;51.270;6.756;2022-10-04T11:46:31;113.87;;;108.03;;
2476;SDS011;1249;51.270;6.756;2022-10-04T11:49:08;119.70;;;113.10;;
2476;SDS011;1249;51.270;6.756;2022-10-04T11:51:50;119.80;;;113.00;;
2476;SDS011;1249;51.270;6.756;2022-10-04T11:54:43;113.50;;;107.20;;
2476;SDS011;1249;51.270;6.756;2022-10-04T11:57:29;133.80;;;126.13;;
2476;SDS011;1249;51.270;6.756;2022-10-04T12:00:07;125.07;;;116.83;;
2476;SDS011;1249;51.270;6.756;2022-10-04T12:02:45;134.37;;;127.23;;
2476;SDS011;1249;51.270;6.756;2022-10-04T12:08:25;143.53;;;134.00;;
2476;SDS011;1249;51.270;6.756;2022-10-04T12:14:14;130.00;;;122.60;;
2476;SDS011;1249;51.270;6.756;2022-10-04T12:16:54;121.10;;;114.40;;
2476;SDS011;1249;51.270;6.756;2022-10-04T12:19:48;122.03;;;115.53;;
2476;SDS011;1249;51.270;6.756;2022-10-04T12:22:39;110.97;;;104.80;;
2476;SDS011;1249;51.270;6.756;2022-10-04T12:25:27;139.77;;;132.50;;
2476;SDS011;1249;51.270;6.756;2022-10-04T12:31:06;125.20;;;116.60;;
2476;SDS011;1249;51.270;6.756;2022-10-04T12:33:46;110.63;;;104.17;;
2476;SDS011;1249;51.270;6.756;2022-10-04T12:36:26;124.57;;;117.10;;
2476;SDS011;1249;51.270;6.756;2022-10-04T12:39:20;124.83;;;118.40;;
2476;SDS011;1249;51.270;6.756;2022-10-04T12:42:10;134.40;;;127.20;;
2476;SDS011;1249;51.270;6.756;2022-10-04T12:44:52;154.40;;;145.57;;
2476;SDS011;1249;51.270;6.756;2022-10-04T12:47:36;127.47;;;120.13;;
2476;SDS011;1249;51.270;6.756;2022-10-04T12:50:21;131.57;;;124.73;;
2476;SDS011;1249;51.270;6.756;2022-10-04T12:52:59;119.40;;;112.53;;
2476;SDS011;1249;51.270;6.756;2022-10-04T12:56:05;149.47;;;141.37;;
2476;SDS011;1249;51.270;6.756;2022-10-04T12:58:48;115.63;;;108.83;;
2476;SDS011;1249;51.270;6.756;2022-10-04T13:01:24;140.20;;;132.03;;
2476;SDS011;1249;51.270;6.756;2022-10-04T13:04:04;128.03;;;121.27;;
2476;SDS011;1249;51.270;6.756;2022-10-04T13:06:41;130.13;;;122.70;;
2476;SDS011;1249;51.270;6.756;2022-10-04T13:09:18;147.93;;;139.53;;
2476;SDS011;1249;51.270;6.756;2022-10-04T13:11:55;123.47;;;115.73;;
2476;SDS011;1249;51.270;6.756;2022-10-04T13:14:53;134.30;;;125.43;;
2476;SDS011;1249;51.270;6.756;2022-10-04T13:17:30;119.50;;;113.17;;
2476;SDS011;1249;51.270;6.756;2022-10-04T13:23:18;129.27;;;122.13;;
2476;SDS011;1249;51.270;6.756;2022-10-04T13:25:57;125.87;;;119.40;;
2476;SDS011;1249;51.270;6.756;2022-10-04T13:28:37;123.80;;;116.27;;
2476;SDS011;1249;51.270;6.756;2022-10-04T13:31:13;143.67;;;135.17;;
2476;SDS011;1249;51.270;6.756;2022-10-04T13:33:49;133.63;;;126.57;;
2476;SDS011;1249;51.270;6.756;2022-10-04T13:36:23;119.50;;;112.80;;
2476;SDS011;1249;51.270;6.756;2022-10-04T13:39:15;140.30;;;133.00;;
2476;SDS011;1249;51.270;6.756;2022-10-04T13:42:08;140.47;;;131.97;;
2476;SDS011;1249;51.270;6.756;2022-10-04T13:44:53;153.07;;;144.33;;
2476;SDS011;1249;51.270;6.756;2022-10-04T13:47:42;120.20;;;112.60;;
2476;SDS011;1249;51.270;6.756;2022-10-04T13:50:25;131.80;;;125.10;;
2476;SDS011;1249;51.270;6.756;2022-10-04T13:53:04;114.60;;;108.10;;
2476;SDS011;1249;51.270;6.756;2022-10-04T13:55:59;113.87;;;107.10;;
2476;SDS011;1249;51.270;6.756;2022-10-04T13:58:47;115.33;;;108.43;;
2476;SDS011;1249;51.270;6.756;2022-10-04T14:01:32;126.10;;;118.67;;
2476;SDS011;1249;51.270;6.756;2022-10-04T14:04:41;133.50;;;126.53;;
2476;SDS011;1249;51.270;6.756;2022-10-04T14:07:36;124.33;;;117.07;;
2476;SDS011;1249;51.270;6.756;2022-10-04T14:10:19;135.27;;;127.40;;
2476;SDS011;1249;51.270;6.756;2022-10-04T14:13:07;120.07;;;113.27;;
2476;SDS011;1249;51.270;6.756;2022-10-04T14:15:59;160.40;;;152.10;;
2476;SDS011;1249;51.270;6.756;2022-10-04T14:19:08;129.43;;;122.10;;
2476;SDS011;1249;51.270;6.756;2022-10-04T14:27:47;143.37;;;134.80;;
2476;SDS011;1249;51.270;6.756;2022-10-04T14:30:26;108.03;;;102.20;;
2476;SDS011;1249;51.270;6.756;2022-10-04T14:39:30;124.10;;;116.93;;
2476;SDS011;1249;51.270;6.756;2022-10-04T14:42:21;133.00;;;126.17;;
2476;SDS011;1249;51.270;6.756;2022-10-04T14:45:11;123.90;;;116.97;;
2476;SDS011;1249;51.270;6.756;2022-10-04T14:47:59;132.63;;;124.23;;
2476;SDS011;1249;51.270;6.756;2022-10-04T14:50:44;139.40;;;131.63;;
2476;SDS011;1249;51.270;6.756;2022-10-04T14:53:38;123.03;;;115.73;;
2476;SDS011;1249;51.270;6.756;2022-10-04T14:56:37;133.60;;;126.07;;
2476;SDS011;1249;51.270;6.756;2022-10-04T14:59:29;110.03;;;103.40;;
2476;SDS011;1249;51.270;6.756;2022-10-04T15:11:38;127.60;;;120.43;;
2476;SDS011;1249;51.270;6.756;2022-10-04T15:14:26;106.93;;;100.33;;
2476;SDS011;1249;51.270;6.756;2022-10-04T15:17:00;134.07;;;126.70;;
2476;SDS011;1249;51.270;6.756;2022-10-04T15:19:30;125.83;;;117.87;;
2476;SDS011;1249;51.270;6.756;2022-10-04T15:22:04;133.90;;;126.63;;
2476;SDS011;1249;51.270;6.756;2022-10-04T15:24:43;149.23;;;140.73;;
2476;SDS011;1249;51.270;6.756;2022-10-04T15:27:34;113.83;;;107.30;;
2476;SDS011;1249;51.270;6.756;2022-10-04T15:30:12;110.37;;;104.50;;
2476;SDS011;1249;51.270;6.756;2022-10-04T15:32:49;133.50;;;126.47;;
2476;SDS011;1249;51.270;6.756;2022-10-04T15:35:31;98.27;;;93.07;;
2476;SDS011;1249;51.270;6.756;2022-10-04T15:38:06;98.67;;;92.80;;
2476;SDS011;1249;51.270;6.756;2022-10-04T15:40:52;142.93;;;136.03;;
2476;SDS011;1249;51.270;6.756;2022-10-04T15:43:27;116.47;;;110.20;;
2476;SDS011;1249;51.270;6.756;2022-10-04T15:52:00;106.97;;;100.87;;
2476;SDS011;1249;51.270;6.756;2022-10-04T15:57:51;103.40;;;97.60;;
2476;SDS011;1249;51.270;6.756;2022-10-04T16:00:42;85.23;;;80.70;;
2476;SDS011;1249;51.270;6.756;2022-10-04T16:03:25;82.50;;;77.73;;
2476;SDS011;1249;51.270;6.756;2022-10-04T16:06:03;94.17;;;89.33;;
2476;SDS011;1249;51.270;6.756;2022-10-04T16:08:39;112.90;;;107.53;;
2476;SDS011;1249;51.270;6.756;2022-10-04T16:11:28;88.73;;;84.17;;
2476;SDS011;1249;51.270;6.756;2022-10-04T16:14:05;67.17;;;63.37;;
2476;SDS011;1249;51.270;6.756;2022-10-04T16:17:09;65.73;;;62.33;;
2476;SDS011;1249;51.270;6.756;2022-10-04T16:19:58;76.53;;;72.97;;
2476;SDS011;1249;51.270;6.756;2022-10-04T16:22:37;103.60;;;98.20;;
2476;SDS011;1249;51.270;6.756;2022-10-04T16:28:03;81.70;;;77.87;;
2476;SDS011;1249;51.270;6.756;2022-10-04T16:30:36;77.10;;;73.27;;
2476;SDS011;1249;51.270;6.756;2022-10-04T16:33:12;66.87;;;63.03;;
2476;SDS011;1249;51.270;6.756;2022-10-04T16:35:59;102.53;;;97.23;;
2476;SDS011;1249;51.270;6.756;2022-10-04T16:38:34;79.83;;;75.70;;
2476;SDS011;1249;51.270;6.756;2022-10-04T16:41:31;88.80;;;84.30;;
2476;SDS011;1249;51.270;6.756;2022-10-04T16:44:08;89.77;;;84.67;;
2476;SDS011;1249;51.270;6.756;2022-10-04T16:46:52;75.03;;;70.77;;
2476;SDS011;1249;51.270;6.756;2022-10-04T16:49:25;90.93;;;86.43;;
2476;SDS011;1249;51.270;6.756;2022-10-04T16:54:47;76.87;;;72.73;;
2476;SDS011;1249;51.270;6.756;2022-10-04T16:57:35;69.87;;;66.27;;
2476;SDS011;1249;51.270;6.756;2022-10-04T17:03:04;79.87;;;75.23;;
2476;SDS011;1249;51.270;6.756;2022-10-04T17:08:39;82.10;;;78.00;;
2476;SDS011;1249;51.270;6.756;2022-10-04T17:11:26;72.93;;;69.27;;
2476;SDS011;1249;51.270;6.756;2022-10-04T17:14:20;74.07;;;70.33;;
2476;SDS011;1249;51.270;6.756;2022-10-04T17:17:00;58.60;;;55.13;;
2476;SDS011;1249;51.270;6.756;2022-10-04T17:19:37;53.83;;;50.67;;
2476;SDS011;1249;51.270;6.756;2022-10-04T17:22:18;62.77;;;59.97;;
2476;SDS011;1249;51.270;6.756;2022-10-04T17:24:58;45.93;;;43.33;;
2476;SDS011;1249;51.270;6.756;2022-10-04T17:30:16;41.37;;;38.70;;
2476;SDS011;1249;51.270;6.756;2022-10-04T17:32:56;44.63;;;42.27;;
2476;SDS011;1249;51.270;6.756;2022-10-04T17:35:53;59.17;;;56.20;;
2476;SDS011;1249;51.270;6.756;2022-10-04T17:38:43;51.93;;;49.17;;
2476;SDS011;1249;51.270;6.756;2022-10-04T17:41:18;61.33;;;58.17;;
2476;SDS011;1249;51.270;6.756;2022-10-04T17:44:05;59.33;;;56.03;;
2476;SDS011;1249;51.270;6.756;2022-10-04T17:46:53;62.53;;;59.27;;
2476;SDS011;1249;51.270;6.756;2022-10-04T17:49:26;64.47;;;61.10;;
2476;SDS011;1249;51.270;6.756;2022-10-04T17:52:17;53.63;;;51.03;;
2476;SDS011;1249;51.270;6.756;2022-10-04T17:55:13;47.33;;;44.67;;
2476;SDS011;1249;51.270;6.756;2022-10-04T17:57:44;47.63;;;45.50;;